createdAt,value
2022-11-20T00:01:16.596Z,4.95
2022-11-20T00:03:43.610Z,3.60
2022-11-20T00:06:13.232Z,5.43
2022-11-20T00:08:40.496Z,6.03
2022-11-20T00:11:14.267Z,5.00
2022-11-20T00:13:43.532Z,3.95
2022-11-20T00:16:12.620Z,4.35
2022-11-20T00:18:39.670Z,4.65
2022-11-20T00:21:09.279Z,4.80
2022-11-20T00:23:36.449Z,3.50
2022-11-20T00:26:08.844Z,4.05
2022-11-20T00:28:36.006Z,3.92
2022-11-20T00:31:08.260Z,3.90
2022-11-20T00:33:35.828Z,4.22
2022-11-20T00:36:04.879Z,4.03
2022-11-20T00:38:32.907Z,3.90
2022-11-20T00:41:01.701Z,3.83
2022-11-20T00:43:29.194Z,4.60
2022-11-20T00:46:01.096Z,3.70
2022-11-20T00:48:28.515Z,4.22
2022-11-20T00:50:56.266Z,4.43
2022-11-20T00:53:23.991Z,3.92
2022-11-20T00:56:02.385Z,3.53
2022-11-20T00:58:34.575Z,4.13
2022-11-20T01:01:04.247Z,3.78
2022-11-20T01:03:36.098Z,3.72
2022-11-20T01:06:04.289Z,3.30
2022-11-20T01:08:36.046Z,4.63
2022-11-20T01:11:06.244Z,3.65
2022-11-20T01:13:40.167Z,3.90
2022-11-20T01:16:15.496Z,3.90
2022-11-20T01:18:45.925Z,4.38
2022-11-20T01:21:25.673Z,3.25
2022-11-20T01:23:52.776Z,3.90
2022-11-20T01:26:22.939Z,3.10
2022-11-20T01:28:50.513Z,3.53
2022-11-20T01:31:20.283Z,3.35
2022-11-20T01:33:49.317Z,4.40
2022-11-20T01:36:17.590Z,4.10
2022-11-20T01:38:45.161Z,4.72
2022-11-20T01:41:34.212Z,3.67
2022-11-20T01:44:01.614Z,3.13
2022-11-20T01:46:29.031Z,4.10
2022-11-20T01:49:21.507Z,3.28
2022-11-20T01:51:58.239Z,3.70
2022-11-20T01:54:39.100Z,3.58
2022-11-20T01:57:11.167Z,3.75
2022-11-20T01:59:44.584Z,3.75
2022-11-20T02:02:11.634Z,3.10
2022-11-20T02:04:38.859Z,3.70
2022-11-20T02:07:07.345Z,4.28
2022-11-20T02:09:34.421Z,4.00
2022-11-20T02:12:02.052Z,3.20
2022-11-20T02:14:29.308Z,3.88
2022-11-20T02:16:56.885Z,2.92
2022-11-20T02:19:31.139Z,3.60
2022-11-20T02:22:09.313Z,3.58
2022-11-20T02:24:36.437Z,3.20
2022-11-20T02:27:10.015Z,3.75
2022-11-20T02:29:41.991Z,3.45
2022-11-20T02:32:21.177Z,3.03
2022-11-20T02:34:48.639Z,3.10
2022-11-20T02:37:16.862Z,3.38
2022-11-20T02:39:45.747Z,3.20
2022-11-20T02:42:12.882Z,3.40
2022-11-20T02:44:39.881Z,3.85
2022-11-20T02:47:06.888Z,3.47
2022-11-20T02:49:34.195Z,3.70
2022-11-20T02:52:01.436Z,3.00
2022-11-20T02:54:28.802Z,3.13
2022-11-20T02:56:55.840Z,3.35
2022-11-20T02:59:23.132Z,4.47
2022-11-20T03:01:50.464Z,3.55
2022-11-20T03:04:17.544Z,3.22
2022-11-20T03:06:44.544Z,3.97
2022-11-20T03:09:11.542Z,3.25
2022-11-20T03:11:38.614Z,2.10
2022-11-20T03:14:06.724Z,3.58
2022-11-20T03:16:34.186Z,3.45
2022-11-20T03:19:01.354Z,2.70
2022-11-20T03:21:28.619Z,3.13
2022-11-20T03:23:55.902Z,3.30
2022-11-20T03:26:25.087Z,2.40
2022-11-20T03:28:55.183Z,2.58
2022-11-20T03:31:25.508Z,3.38
2022-11-20T03:33:53.142Z,2.92
2022-11-20T03:36:21.860Z,3.22
2022-11-20T03:38:49.625Z,3.17
2022-11-20T03:41:22.368Z,3.38
2022-11-20T03:43:54.881Z,2.95
2022-11-20T03:46:22.371Z,2.63
2022-11-20T03:48:51.933Z,3.85
2022-11-20T03:51:22.929Z,3.55
2022-11-20T03:53:51.953Z,3.08
2022-11-20T03:56:21.530Z,2.97
2022-11-20T03:58:48.566Z,2.77
2022-11-20T04:01:22.951Z,3.00
2022-11-20T04:03:50.459Z,3.20
2022-11-20T04:06:21.450Z,3.05
2022-11-20T04:08:53.644Z,3.05
2022-11-20T04:11:23.675Z,3.08
2022-11-20T04:13:57.064Z,2.43
2022-11-20T04:16:25.839Z,2.85
2022-11-20T04:19:01.622Z,3.28
2022-11-20T04:21:29.291Z,3.58
2022-11-20T04:23:57.455Z,3.25
2022-11-20T04:26:26.702Z,3.20
2022-11-20T04:28:54.076Z,3.22
2022-11-20T04:31:24.303Z,3.08
2022-11-20T04:33:51.900Z,2.72
2022-11-20T04:36:21.133Z,3.33
2022-11-20T04:38:56.564Z,3.15
2022-11-20T04:41:29.159Z,3.97
2022-11-20T04:44:00.884Z,2.45
2022-11-20T04:46:29.009Z,2.38
2022-11-20T04:48:56.809Z,2.70
2022-11-20T04:51:24.151Z,2.53
2022-11-20T04:53:51.468Z,2.90
2022-11-20T04:56:18.741Z,3.05
2022-11-20T04:58:46.208Z,2.58
2022-11-20T05:01:16.694Z,2.90
2022-11-20T05:06:14.037Z,2.70
2022-11-20T05:08:41.302Z,2.08
2022-11-20T05:11:11.368Z,2.70
2022-11-20T05:13:38.926Z,3.10
2022-11-20T05:16:09.713Z,2.72
2022-11-20T05:18:38.145Z,2.22
2022-11-20T05:21:06.023Z,3.33
2022-11-20T05:23:34.091Z,2.63
2022-11-20T05:26:02.269Z,2.50
2022-11-20T05:28:30.538Z,2.25
2022-11-20T05:31:04.685Z,2.95
2022-11-20T05:33:31.647Z,2.20
2022-11-20T05:36:02.090Z,3.50
2022-11-20T05:38:29.179Z,3.75
2022-11-20T05:40:56.489Z,3.72
2022-11-20T05:43:23.525Z,4.38
2022-11-20T05:45:56.831Z,4.43
2022-11-20T05:48:23.892Z,4.00
2022-11-20T05:50:50.899Z,3.72
2022-11-20T05:53:17.918Z,3.25
2022-11-20T05:55:44.908Z,3.35
2022-11-20T05:58:11.950Z,3.33
2022-11-20T06:00:38.951Z,3.67
2022-11-20T06:03:06.018Z,4.30
2022-11-20T06:05:34.839Z,3.72
2022-11-20T06:08:02.514Z,3.38
2022-11-20T06:10:29.507Z,4.32
2022-11-20T06:12:59.227Z,3.22
2022-11-20T06:15:26.493Z,4.22
2022-11-20T06:17:54.951Z,3.67
2022-11-20T06:20:23.143Z,5.15
2022-11-20T06:22:50.270Z,4.53
2022-11-20T06:25:17.327Z,4.65
2022-11-20T06:27:44.374Z,4.35
2022-11-20T06:30:12.046Z,4.32
2022-11-20T06:32:39.038Z,6.63
2022-11-20T06:35:06.445Z,4.45
2022-11-20T06:37:33.515Z,4.18
2022-11-20T06:40:00.547Z,4.00
2022-11-20T06:42:27.533Z,4.32
2022-11-20T06:44:54.564Z,4.30
2022-11-20T06:47:21.589Z,3.85
2022-11-20T06:49:48.567Z,3.95
2022-11-20T06:52:15.561Z,3.70
2022-11-20T06:54:42.536Z,6.80
2022-11-20T06:57:09.619Z,4.40
2022-11-20T06:59:36.659Z,4.40
2022-11-20T07:02:03.714Z,4.70
2022-11-20T07:04:30.790Z,4.82
2022-11-20T07:06:57.911Z,4.20
2022-11-20T07:09:25.266Z,3.97
2022-11-20T07:11:52.419Z,4.65
2022-11-20T07:14:19.529Z,5.45
2022-11-20T07:16:46.565Z,4.97
2022-11-20T07:19:13.584Z,6.13
2022-11-20T07:21:40.551Z,3.83
2022-11-20T07:24:07.654Z,4.57
2022-11-20T07:26:34.652Z,5.05
2022-11-20T07:29:01.714Z,4.72
2022-11-20T07:31:28.745Z,4.47
2022-11-20T07:33:55.798Z,4.88
2022-11-20T07:36:23.135Z,4.75
2022-11-20T07:38:50.232Z,4.40
2022-11-20T07:41:17.256Z,5.40
2022-11-20T07:43:44.402Z,4.55
2022-11-20T07:46:11.414Z,4.63
2022-11-20T07:48:38.548Z,4.22
2022-11-20T07:51:05.566Z,4.65
2022-11-20T07:53:32.700Z,4.05
2022-11-20T07:56:03.782Z,4.63
2022-11-20T07:58:31.411Z,5.40
2022-11-20T08:00:58.484Z,5.80
2022-11-20T08:03:26.094Z,4.65
2022-11-20T08:05:53.608Z,4.28
2022-11-20T08:08:21.082Z,3.95
2022-11-20T08:10:48.180Z,4.10
2022-11-20T08:13:35.081Z,4.13
2022-11-20T08:16:02.350Z,5.47
2022-11-20T08:18:31.676Z,4.53
2022-11-20T08:21:02.604Z,4.35
2022-11-20T08:23:29.591Z,5.15
2022-11-20T08:25:56.600Z,5.00
2022-11-20T08:28:23.643Z,5.03
2022-11-20T08:30:51.500Z,4.20
2022-11-20T08:33:19.636Z,4.60
2022-11-20T08:35:46.942Z,4.68
2022-11-20T08:38:14.259Z,5.20
2022-11-20T08:40:41.315Z,5.95
2022-11-20T08:43:08.338Z,5.32
2022-11-20T08:45:35.716Z,5.10
2022-11-20T08:48:04.433Z,5.68
2022-11-20T08:50:35.344Z,5.05
2022-11-20T08:53:06.010Z,3.90
2022-11-20T08:55:33.153Z,4.28
2022-11-20T08:58:04.641Z,4.03
2022-11-20T09:00:31.706Z,4.07
2022-11-20T09:02:59.734Z,5.10
2022-11-20T09:05:26.772Z,4.15
2022-11-20T09:07:57.100Z,7.80
2022-11-20T09:10:25.071Z,4.22
2022-11-20T09:12:53.144Z,5.10
2022-11-20T09:15:21.022Z,4.95
2022-11-20T09:17:59.990Z,4.90
2022-11-20T09:20:29.732Z,5.07
2022-11-20T09:22:57.783Z,5.60
2022-11-20T09:25:24.999Z,4.45
2022-11-20T09:27:59.732Z,5.65
2022-11-20T09:30:30.437Z,3.90
2022-11-20T09:32:57.765Z,4.63
2022-11-20T09:35:24.907Z,5.25
2022-11-20T09:37:51.965Z,5.13
2022-11-20T09:40:26.535Z,4.75
2022-11-20T09:43:22.671Z,5.38
2022-11-20T09:46:19.983Z,5.07
2022-11-20T09:49:32.057Z,5.50
2022-11-20T09:52:19.960Z,5.00
2022-11-20T09:54:47.244Z,4.50
2022-11-20T09:57:20.061Z,6.03
2022-11-20T10:00:01.768Z,5.55
2022-11-20T10:02:59.657Z,5.10
2022-11-20T10:05:35.097Z,5.57
2022-11-20T10:08:30.444Z,5.70
2022-11-20T10:11:24.697Z,4.88
2022-11-20T10:14:17.435Z,4.88
2022-11-20T10:17:10.958Z,5.07
2022-11-20T10:19:53.684Z,5.03
2022-11-20T10:22:36.753Z,4.82
2022-11-20T10:25:16.906Z,4.20
2022-11-20T10:28:23.769Z,4.28
2022-11-20T10:31:01.427Z,4.22
2022-11-20T10:33:50.156Z,5.50
2022-11-20T10:36:28.677Z,4.90
2022-11-20T10:39:20.047Z,4.43
2022-11-20T10:41:52.481Z,5.55
2022-11-20T10:44:46.129Z,5.75
2022-11-20T10:47:16.603Z,5.43
2022-11-20T10:52:46.433Z,5.15
2022-11-20T10:55:34.042Z,5.47
2022-11-20T10:58:36.584Z,7.78
2022-11-20T11:01:14.722Z,5.95
2022-11-20T11:03:44.614Z,7.47
2022-11-20T11:06:35.654Z,4.88
2022-11-20T11:09:11.879Z,6.13
2022-11-20T11:11:39.824Z,5.70
2022-11-20T11:14:15.388Z,5.07
2022-11-20T11:16:55.044Z,6.05
2022-11-20T11:19:22.463Z,5.70
2022-11-20T11:21:55.687Z,5.78
2022-11-20T11:24:45.452Z,5.72
2022-11-20T11:27:18.032Z,5.47
2022-11-20T11:29:45.847Z,6.03
2022-11-20T11:32:22.848Z,5.32
2022-11-20T11:35:07.849Z,4.43
2022-11-20T11:37:38.290Z,5.00
2022-11-20T11:42:57.778Z,5.10
2022-11-20T11:45:25.563Z,6.50
2022-11-20T11:47:55.073Z,6.82
2022-11-20T11:50:26.001Z,5.07
2022-11-20T11:53:03.461Z,6.18
2022-11-20T11:55:43.583Z,5.55
2022-11-20T11:58:26.169Z,5.45
2022-11-20T12:01:16.274Z,5.25
2022-11-20T12:04:14.133Z,6.85
2022-11-20T12:06:44.425Z,5.07
2022-11-20T12:09:13.058Z,5.43
2022-11-20T12:12:03.977Z,5.47
2022-11-20T12:14:41.748Z,4.68
2022-11-20T12:17:12.606Z,5.40
2022-11-20T12:19:39.693Z,5.63
2022-11-20T12:22:25.710Z,5.82
2022-11-20T12:25:08.932Z,5.30
2022-11-20T12:28:04.469Z,6.22
2022-11-20T12:30:36.621Z,5.68
2022-11-20T12:33:32.444Z,5.22
2022-11-20T12:36:20.772Z,6.53
2022-11-20T12:39:18.206Z,7.97
2022-11-20T12:42:23.744Z,6.60
2022-11-20T12:45:27.146Z,6.97
2022-11-20T12:48:24.539Z,7.55
2022-11-20T12:51:31.350Z,6.03
2022-11-20T12:54:35.815Z,5.88
2022-11-20T12:57:16.759Z,6.00
2022-11-20T13:00:18.008Z,6.53
2022-11-20T13:03:20.269Z,5.80
2022-11-20T13:06:06.442Z,6.40
2022-11-20T13:08:41.124Z,9.43
2022-11-20T13:11:26.480Z,7.50
2022-11-20T13:14:33.319Z,7.68
2022-11-20T13:17:30.293Z,6.78
2022-11-20T13:19:59.881Z,7.22
2022-11-20T13:22:44.161Z,5.93
2022-11-20T13:25:23.258Z,6.13
2022-11-20T13:27:50.725Z,6.80
2022-11-20T13:30:21.260Z,7.90
2022-11-20T13:33:10.117Z,7.07
2022-11-20T13:35:44.018Z,6.03
2022-11-20T13:38:14.568Z,7.30
2022-11-20T13:40:59.812Z,6.30
2022-11-20T13:43:42.521Z,7.88
2022-11-20T13:46:10.825Z,6.95
2022-11-20T13:48:43.854Z,6.32
2022-11-20T13:51:38.456Z,6.63
2022-11-20T13:54:41.907Z,9.30
2022-11-20T13:57:40.535Z,10.63
2022-11-20T14:00:20.890Z,8.90
2022-11-20T14:03:03.394Z,9.45
2022-11-20T14:05:34.910Z,8.35
2022-11-20T14:08:06.197Z,10.23
2022-11-20T14:10:33.789Z,8.50
2022-11-20T14:13:12.332Z,9.02
2022-11-20T14:15:44.804Z,10.68
2022-11-20T14:18:15.568Z,13.05
2022-11-20T14:20:44.135Z,10.07
2022-11-20T14:23:12.105Z,9.32
2022-11-20T14:25:43.934Z,7.93
2022-11-20T14:28:27.476Z,12.25
2022-11-20T14:30:56.304Z,9.68
2022-11-20T14:33:28.084Z,10.80
2022-11-20T14:35:58.534Z,9.55
2022-11-20T14:40:54.504Z,8.18
2022-11-20T14:43:25.452Z,9.73
2022-11-20T14:46:08.402Z,9.73
2022-11-20T14:48:51.200Z,8.18
2022-11-20T14:51:36.160Z,10.68
2022-11-20T14:54:19.238Z,10.57
2022-11-20T14:57:01.246Z,11.32
2022-11-20T14:59:31.315Z,10.65
2022-11-20T15:02:09.425Z,9.40
2022-11-20T15:04:58.318Z,9.80
2022-11-20T15:07:31.831Z,9.10
2022-11-20T15:10:24.329Z,8.50
2022-11-20T15:12:58.703Z,9.82
2022-11-20T15:15:34.656Z,8.10
2022-11-20T15:18:01.893Z,10.88
2022-11-20T15:20:32.881Z,7.40
2022-11-20T15:23:00.302Z,8.18
2022-11-20T15:25:27.622Z,9.35
2022-11-20T15:27:58.288Z,9.00
2022-11-20T15:30:25.842Z,7.30
2022-11-20T15:32:52.854Z,8.43
2022-11-20T15:35:20.017Z,7.05
2022-11-20T15:37:47.088Z,7.38
2022-11-20T15:40:14.267Z,8.02
2022-11-20T15:43:01.176Z,8.25
2022-11-20T15:45:32.249Z,7.35
2022-11-20T15:47:59.345Z,7.65
2022-11-20T15:50:31.128Z,8.13
2022-11-20T15:52:58.161Z,7.75
2022-11-20T15:55:25.279Z,6.45
2022-11-20T15:57:52.322Z,7.15
2022-11-20T16:00:23.645Z,6.80
2022-11-20T16:02:50.919Z,7.97
2022-11-20T16:05:20.209Z,7.50
2022-11-20T16:07:47.255Z,7.85
2022-11-20T16:10:14.352Z,7.28
2022-11-20T16:13:01.284Z,7.15
2022-11-20T16:15:49.306Z,6.40
2022-11-20T16:18:18.811Z,5.95
2022-11-20T16:20:49.204Z,7.45
2022-11-20T16:23:16.704Z,6.13
2022-11-20T16:25:44.839Z,6.30
2022-11-20T16:28:18.464Z,6.97
2022-11-20T16:30:46.252Z,8.68
2022-11-20T16:33:15.577Z,6.57
2022-11-20T16:35:43.051Z,6.35
2022-11-20T16:38:10.342Z,6.13
2022-11-20T16:40:37.411Z,5.53
2022-11-20T16:43:11.177Z,6.95
2022-11-20T16:45:43.098Z,6.38
2022-11-20T16:48:14.486Z,6.88
2022-11-20T16:50:50.797Z,6.25
2022-11-20T16:53:19.533Z,7.97
2022-11-20T16:55:47.361Z,5.43
2022-11-20T16:58:15.116Z,6.82
2022-11-20T17:00:46.876Z,6.95
2022-11-20T17:03:18.209Z,6.78
2022-11-20T17:05:45.221Z,6.68
2022-11-20T17:08:12.239Z,7.20
2022-11-20T17:10:39.291Z,5.88
2022-11-20T17:13:06.284Z,5.95
2022-11-20T17:15:33.319Z,7.32
2022-11-20T17:18:00.355Z,6.25
2022-11-20T17:20:27.372Z,5.97
2022-11-20T17:22:54.408Z,6.80
2022-11-20T17:25:21.433Z,6.55
2022-11-20T17:27:48.423Z,5.22
2022-11-20T17:30:15.618Z,6.85
2022-11-20T17:32:47.077Z,5.63
2022-11-20T17:35:14.135Z,6.65
2022-11-20T17:37:41.190Z,6.70
2022-11-20T17:40:08.588Z,7.72
2022-11-20T17:42:37.008Z,6.97
2022-11-20T17:45:05.178Z,7.60
2022-11-20T17:47:32.295Z,6.25
2022-11-20T17:49:59.350Z,7.22
2022-11-20T17:52:26.353Z,8.50
2022-11-20T17:54:56.053Z,6.82
2022-11-20T17:57:44.254Z,5.57
2022-11-20T18:00:13.355Z,5.80
2022-11-20T18:02:40.424Z,6.03
2022-11-20T18:05:09.053Z,6.00
2022-11-20T18:07:41.483Z,5.75
2022-11-20T18:10:09.578Z,6.15
2022-11-20T18:12:36.655Z,5.75
2022-11-20T18:15:04.105Z,5.18
2022-11-20T18:17:31.126Z,5.75
2022-11-20T18:20:21.904Z,5.72
2022-11-20T18:22:45.342Z,5.45
2022-11-20T18:25:12.545Z,5.78
2022-11-20T18:27:39.685Z,6.03
2022-11-20T18:30:07.311Z,7.25
2022-11-20T18:32:35.714Z,6.00
2022-11-20T18:35:02.786Z,6.60
2022-11-20T18:37:31.174Z,6.38
2022-11-20T18:39:58.270Z,6.55
2022-11-20T18:42:45.240Z,7.00
2022-11-20T18:45:12.229Z,5.95
2022-11-20T18:47:40.319Z,5.20
2022-11-20T18:50:09.353Z,5.95
2022-11-20T18:52:42.173Z,5.43
2022-11-20T18:55:10.119Z,7.13
2022-11-20T18:57:37.107Z,6.57
2022-11-20T19:00:09.306Z,6.60
2022-11-20T19:02:41.752Z,6.22
2022-11-20T19:05:14.720Z,5.65
2022-11-20T19:07:42.631Z,6.72
2022-11-20T19:10:09.914Z,5.55
2022-11-20T19:12:37.668Z,7.45
2022-11-20T19:15:05.408Z,7.50
2022-11-20T19:17:33.925Z,6.18
2022-11-20T19:20:01.076Z,5.93
2022-11-20T19:22:28.252Z,6.47
2022-11-20T19:24:55.292Z,6.85
2022-11-20T19:27:22.306Z,6.00
2022-11-20T19:29:49.504Z,5.82
2022-11-20T19:32:16.499Z,5.28
2022-11-20T19:34:43.907Z,6.88
2022-11-20T19:37:11.014Z,6.35
2022-11-20T19:39:38.115Z,6.50
2022-11-20T19:42:05.681Z,4.85
2022-11-20T19:44:33.176Z,4.85
2022-11-20T19:47:00.813Z,5.75
2022-11-20T19:49:27.910Z,6.90
2022-11-20T19:51:54.907Z,6.07
2022-11-20T19:54:21.944Z,7.05
2022-11-20T19:56:49.690Z,6.13
2022-11-20T19:59:16.998Z,5.38
2022-11-20T20:01:44.337Z,5.85
2022-11-20T20:04:11.423Z,5.53
2022-11-20T20:06:40.044Z,6.28
2022-11-20T20:09:10.467Z,6.07
2022-11-20T20:11:38.236Z,6.93
2022-11-20T20:14:13.748Z,6.63
2022-11-20T20:16:41.533Z,5.60
2022-11-20T20:19:11.647Z,5.38
2022-11-20T20:21:38.778Z,6.03
2022-11-20T20:24:06.372Z,6.97
2022-11-20T20:26:33.946Z,5.88
2022-11-20T20:29:04.548Z,6.55
2022-11-20T20:31:33.515Z,7.10
2022-11-20T20:34:01.494Z,6.25
2022-11-20T20:36:28.657Z,6.00
2022-11-20T20:38:57.404Z,5.75
2022-11-20T20:41:25.141Z,5.55
2022-11-20T20:44:12.755Z,6.35
2022-11-20T20:46:40.551Z,5.45
2022-11-20T20:49:08.151Z,6.55
2022-11-20T20:51:35.841Z,6.65
2022-11-20T20:54:04.599Z,6.53
2022-11-20T20:56:31.817Z,6.10
2022-11-20T20:58:58.906Z,4.70
2022-11-20T21:01:29.025Z,5.25
2022-11-20T21:03:57.111Z,5.45
2022-11-20T21:06:24.832Z,4.90
2022-11-20T21:08:52.094Z,5.88
2022-11-20T21:11:20.703Z,6.10
2022-11-20T21:13:48.689Z,6.80
2022-11-20T21:16:17.721Z,6.38
2022-11-20T21:18:45.021Z,5.53
2022-11-20T21:21:34.643Z,5.05
2022-11-20T21:24:02.366Z,5.60
2022-11-20T21:26:29.549Z,7.00
2022-11-20T21:28:57.728Z,5.90
2022-11-20T21:31:26.828Z,5.18
2022-11-20T21:33:55.513Z,6.40
2022-11-20T21:36:25.126Z,6.60
2022-11-20T21:38:54.759Z,6.07
2022-11-20T21:41:22.579Z,5.13
2022-11-20T21:44:15.834Z,5.60
2022-11-20T21:46:41.038Z,4.68
2022-11-20T21:49:09.186Z,4.88
2022-11-20T21:51:36.423Z,5.90
2022-11-20T21:54:03.503Z,4.90
2022-11-20T21:56:30.506Z,5.57
2022-11-20T21:58:58.323Z,5.03
2022-11-20T22:01:28.530Z,8.13
2022-11-20T22:03:58.251Z,5.07
2022-11-20T22:06:27.272Z,5.07
2022-11-20T22:08:54.370Z,4.57
2022-11-20T22:11:22.390Z,5.80
2022-11-20T22:14:09.696Z,6.10
2022-11-20T22:16:38.077Z,5.65
2022-11-20T22:19:06.054Z,6.28
2022-11-20T22:21:33.667Z,4.78
2022-11-20T22:24:00.777Z,6.97
2022-11-20T22:26:30.226Z,5.13
2022-11-20T22:28:59.272Z,5.78
2022-11-20T22:31:29.391Z,6.18
2022-11-20T22:34:01.510Z,6.68
2022-11-20T22:36:30.085Z,5.78
2022-11-20T22:38:57.654Z,5.93
2022-11-20T22:41:28.785Z,6.45
2022-11-20T22:43:58.900Z,5.47
2022-11-20T22:46:27.395Z,4.68
2022-11-20T22:48:57.110Z,6.32
2022-11-20T22:51:29.356Z,5.22
2022-11-20T22:53:56.568Z,5.95
2022-11-20T22:56:23.828Z,5.88
2022-11-20T22:58:52.821Z,5.80
2022-11-20T23:01:28.201Z,5.30
2022-11-20T23:03:57.656Z,5.50
2022-11-20T23:06:25.540Z,5.30
2022-11-20T23:08:53.292Z,4.95
2022-11-20T23:11:25.799Z,5.35
2022-11-20T23:14:01.373Z,5.15
2022-11-20T23:16:30.263Z,5.10
2022-11-20T23:19:00.025Z,5.80
2022-11-20T23:21:27.396Z,5.40
2022-11-20T23:23:56.312Z,4.97
2022-11-20T23:26:26.198Z,5.70
2022-11-20T23:28:54.800Z,5.40
2022-11-20T23:31:22.055Z,5.10
2022-11-20T23:33:49.196Z,5.20
2022-11-20T23:36:16.255Z,5.82
2022-11-20T23:38:43.376Z,4.38
2022-11-20T23:41:10.532Z,5.07
2022-11-20T23:43:37.646Z,4.72
2022-11-20T23:46:05.920Z,6.13
2022-11-20T23:48:35.727Z,5.63
2022-11-20T23:51:03.321Z,5.15
2022-11-20T23:53:30.708Z,6.22
2022-11-20T23:56:00.722Z,5.93
2022-11-20T23:58:32.484Z,4.93
